sensor_id;sensor_type;location;lat;lon;timestamp;temperature;humidity
60868;DHT22;46702;48.370;10.794;2023-06-22T00:01:28;19.80;99.90
60868;DHT22;46702;48.370;10.794;2023-06-22T00:03:54;19.80;99.90
60868;DHT22;46702;48.370;10.794;2023-06-22T00:06:19;19.80;99.90
60868;DHT22;46702;48.370;10.794;2023-06-22T00:08:45;19.70;99.90
60868;DHT22;46702;48.370;10.794;2023-06-22T00:11:11;19.70;99.90
60868;DHT22;46702;48.370;10.794;2023-06-22T00:13:37;19.70;99.90
60868;DHT22;46702;48.370;10.794;2023-06-22T00:16:03;19.70;99.90
60868;DHT22;46702;48.370;10.794;2023-06-22T00:18:29;19.60;99.90
60868;DHT22;46702;48.370;10.794;2023-06-22T00:20:55;19.50;99.90
60868;DHT22;46702;48.370;10.794;2023-06-22T00:23:24;19.50;99.90
60868;DHT22;46702;48.370;10.794;2023-06-22T00:25:50;19.50;99.90
60868;DHT22;46702;48.370;10.794;2023-06-22T00:28:16;19.50;99.90
60868;DHT22;46702;48.370;10.794;2023-06-22T00:30:41;19.60;99.90
60868;DHT22;46702;48.370;10.794;2023-06-22T00:33:07;19.70;99.90
60868;DHT22;46702;48.370;10.794;2023-06-22T00:35:33;19.80;99.90
60868;DHT22;46702;48.370;10.794;2023-06-22T00:38:00;19.80;99.90
60868;DHT22;46702;48.370;10.794;2023-06-22T00:40:27;19.80;99.90
60868;DHT22;46702;48.370;10.794;2023-06-22T00:42:54;19.90;99.90
60868;DHT22;46702;48.370;10.794;2023-06-22T00:45:19;19.80;99.90
60868;DHT22;46702;48.370;10.794;2023-06-22T00:47:45;19.60;99.90
60868;DHT22;46702;48.370;10.794;2023-06-22T00:50:16;19.40;99.90
60868;DHT22;46702;48.370;10.794;2023-06-22T00:52:44;19.30;99.90
60868;DHT22;46702;48.370;10.794;2023-06-22T00:55:10;19.20;99.90
60868;DHT22;46702;48.370;10.794;2023-06-22T00:57:36;19.00;99.90
60868;DHT22;46702;48.370;10.794;2023-06-22T01:00:03;18.90;99.90
60868;DHT22;46702;48.370;10.794;2023-06-22T01:02:33;18.90;99.90
60868;DHT22;46702;48.370;10.794;2023-06-22T01:04:59;19.00;99.90
60868;DHT22;46702;48.370;10.794;2023-06-22T01:07:38;19.00;99.90
60868;DHT22;46702;48.370;10.794;2023-06-22T01:10:10;18.90;99.90
60868;DHT22;46702;48.370;10.794;2023-06-22T01:12:45;18.90;99.90
60868;DHT22;46702;48.370;10.794;2023-06-22T01:15:45;18.80;99.90
60868;DHT22;46702;48.370;10.794;2023-06-22T01:18:13;18.70;99.90
60868;DHT22;46702;48.370;10.794;2023-06-22T01:20:39;18.60;99.90
60868;DHT22;46702;48.370;10.794;2023-06-22T01:23:11;18.40;99.90
60868;DHT22;46702;48.370;10.794;2023-06-22T01:25:53;18.20;99.90
60868;DHT22;46702;48.370;10.794;2023-06-22T01:28:51;18.20;99.90
60868;DHT22;46702;48.370;10.794;2023-06-22T01:31:20;18.10;99.90
60868;DHT22;46702;48.370;10.794;2023-06-22T01:34:02;18.10;99.90
60868;DHT22;46702;48.370;10.794;2023-06-22T01:36:29;18.10;99.90
60868;DHT22;46702;48.370;10.794;2023-06-22T01:38:56;18.20;99.90
60868;DHT22;46702;48.370;10.794;2023-06-22T01:41:25;18.10;99.90
60868;DHT22;46702;48.370;10.794;2023-06-22T01:43:53;18.10;99.90
60868;DHT22;46702;48.370;10.794;2023-06-22T01:46:19;18.10;99.90
60868;DHT22;46702;48.370;10.794;2023-06-22T01:48:46;18.10;99.90
60868;DHT22;46702;48.370;10.794;2023-06-22T01:51:12;18.10;99.90
60868;DHT22;46702;48.370;10.794;2023-06-22T01:53:37;18.10;99.90
60868;DHT22;46702;48.370;10.794;2023-06-22T01:56:04;18.10;99.90
60868;DHT22;46702;48.370;10.794;2023-06-22T01:58:30;18.10;99.90
60868;DHT22;46702;48.370;10.794;2023-06-22T02:01:11;18.10;99.90
60868;DHT22;46702;48.370;10.794;2023-06-22T02:03:41;18.10;99.90
60868;DHT22;46702;48.370;10.794;2023-06-22T02:06:15;18.10;99.90
60868;DHT22;46702;48.370;10.794;2023-06-22T02:08:47;18.10;99.90
60868;DHT22;46702;48.370;10.794;2023-06-22T02:11:15;18.20;99.90
60868;DHT22;46702;48.370;10.794;2023-06-22T02:13:42;18.20;99.90
60868;DHT22;46702;48.370;10.794;2023-06-22T02:16:12;18.20;99.90
60868;DHT22;46702;48.370;10.794;2023-06-22T02:18:38;18.20;99.90
60868;DHT22;46702;48.370;10.794;2023-06-22T02:21:05;18.10;99.90
60868;DHT22;46702;48.370;10.794;2023-06-22T02:23:31;18.10;99.90
60868;DHT22;46702;48.370;10.794;2023-06-22T02:26:00;18.10;99.90
60868;DHT22;46702;48.370;10.794;2023-06-22T02:28:26;18.00;99.90
60868;DHT22;46702;48.370;10.794;2023-06-22T02:30:52;18.00;99.90
60868;DHT22;46702;48.370;10.794;2023-06-22T02:33:17;18.00;99.90
60868;DHT22;46702;48.370;10.794;2023-06-22T02:35:43;18.00;99.90
60868;DHT22;46702;48.370;10.794;2023-06-22T02:38:13;17.90;99.90
60868;DHT22;46702;48.370;10.794;2023-06-22T02:40:38;17.90;99.90
60868;DHT22;46702;48.370;10.794;2023-06-22T02:43:04;17.90;99.90
60868;DHT22;46702;48.370;10.794;2023-06-22T02:45:30;17.90;99.90
60868;DHT22;46702;48.370;10.794;2023-06-22T02:47:56;17.90;99.90
60868;DHT22;46702;48.370;10.794;2023-06-22T02:50:21;17.90;99.90
60868;DHT22;46702;48.370;10.794;2023-06-22T02:52:47;17.90;99.90
60868;DHT22;46702;48.370;10.794;2023-06-22T02:55:12;17.90;99.90
60868;DHT22;46702;48.370;10.794;2023-06-22T02:57:38;17.90;99.90
60868;DHT22;46702;48.370;10.794;2023-06-22T03:00:09;17.70;99.90
60868;DHT22;46702;48.370;10.794;2023-06-22T03:02:46;17.70;99.90
60868;DHT22;46702;48.370;10.794;2023-06-22T03:05:12;17.60;99.90
60868;DHT22;46702;48.370;10.794;2023-06-22T03:07:42;17.60;99.90
60868;DHT22;46702;48.370;10.794;2023-06-22T03:10:12;17.60;99.90
60868;DHT22;46702;48.370;10.794;2023-06-22T03:12:39;17.60;99.90
60868;DHT22;46702;48.370;10.794;2023-06-22T03:15:09;17.50;99.90
60868;DHT22;46702;48.370;10.794;2023-06-22T03:17:36;17.50;99.90
60868;DHT22;46702;48.370;10.794;2023-06-22T03:20:03;17.50;99.90
60868;DHT22;46702;48.370;10.794;2023-06-22T03:22:36;17.50;99.90
60868;DHT22;46702;48.370;10.794;2023-06-22T03:25:02;17.40;99.90
60868;DHT22;46702;48.370;10.794;2023-06-22T03:27:28;17.40;99.90
60868;DHT22;46702;48.370;10.794;2023-06-22T03:29:53;17.30;99.90
60868;DHT22;46702;48.370;10.794;2023-06-22T03:32:19;17.20;99.90
60868;DHT22;46702;48.370;10.794;2023-06-22T03:34:45;17.20;99.90
60868;DHT22;46702;48.370;10.794;2023-06-22T03:37:14;17.30;99.90
60868;DHT22;46702;48.370;10.794;2023-06-22T03:39:41;17.20;99.90
60868;DHT22;46702;48.370;10.794;2023-06-22T03:42:07;17.20;99.90
60868;DHT22;46702;48.370;10.794;2023-06-22T03:44:33;17.40;99.90
60868;DHT22;46702;48.370;10.794;2023-06-22T03:46:58;17.40;99.90
60868;DHT22;46702;48.370;10.794;2023-06-22T03:49:24;17.40;99.90
60868;DHT22;46702;48.370;10.794;2023-06-22T03:51:50;17.40;99.90
60868;DHT22;46702;48.370;10.794;2023-06-22T03:54:15;17.40;99.90
60868;DHT22;46702;48.370;10.794;2023-06-22T03:56:41;17.40;99.90
60868;DHT22;46702;48.370;10.794;2023-06-22T03:59:06;17.30;99.90
60868;DHT22;46702;48.370;10.794;2023-06-22T04:01:32;17.40;99.90
60868;DHT22;46702;48.370;10.794;2023-06-22T04:03:57;17.40;99.90
60868;DHT22;46702;48.370;10.794;2023-06-22T04:06:23;17.60;99.90
60868;DHT22;46702;48.370;10.794;2023-06-22T04:08:49;17.70;99.90
60868;DHT22;46702;48.370;10.794;2023-06-22T04:11:17;17.80;99.90
60868;DHT22;46702;48.370;10.794;2023-06-22T04:13:43;17.70;99.90
60868;DHT22;46702;48.370;10.794;2023-06-22T04:16:09;17.70;99.90
60868;DHT22;46702;48.370;10.794;2023-06-22T04:18:35;17.70;99.90
60868;DHT22;46702;48.370;10.794;2023-06-22T04:21:01;17.70;99.90
60868;DHT22;46702;48.370;10.794;2023-06-22T04:23:27;17.70;99.90
60868;DHT22;46702;48.370;10.794;2023-06-22T04:25:52;17.80;99.90
60868;DHT22;46702;48.370;10.794;2023-06-22T04:28:18;17.80;99.90
60868;DHT22;46702;48.370;10.794;2023-06-22T04:30:44;17.90;99.90
60868;DHT22;46702;48.370;10.794;2023-06-22T04:33:15;17.90;99.90
60868;DHT22;46702;48.370;10.794;2023-06-22T04:35:42;18.00;99.90
60868;DHT22;46702;48.370;10.794;2023-06-22T04:38:09;18.00;99.90
60868;DHT22;46702;48.370;10.794;2023-06-22T04:40:35;17.90;99.90
60868;DHT22;46702;48.370;10.794;2023-06-22T04:43:01;17.90;99.90
60868;DHT22;46702;48.370;10.794;2023-06-22T04:45:28;18.00;99.90
60868;DHT22;46702;48.370;10.794;2023-06-22T04:47:56;18.00;99.90
60868;DHT22;46702;48.370;10.794;2023-06-22T04:50:22;18.10;99.90
60868;DHT22;46702;48.370;10.794;2023-06-22T04:52:49;18.20;99.90
60868;DHT22;46702;48.370;10.794;2023-06-22T04:55:15;18.20;99.90
60868;DHT22;46702;48.370;10.794;2023-06-22T04:57:48;18.20;99.90
60868;DHT22;46702;48.370;10.794;2023-06-22T05:00:18;18.20;99.90
60868;DHT22;46702;48.370;10.794;2023-06-22T05:02:45;18.20;99.90
60868;DHT22;46702;48.370;10.794;2023-06-22T05:05:12;18.30;99.90
60868;DHT22;46702;48.370;10.794;2023-06-22T05:07:44;18.40;99.90
60868;DHT22;46702;48.370;10.794;2023-06-22T05:10:11;18.40;99.90
60868;DHT22;46702;48.370;10.794;2023-06-22T05:12:40;18.50;99.90
60868;DHT22;46702;48.370;10.794;2023-06-22T05:15:09;18.50;99.90
60868;DHT22;46702;48.370;10.794;2023-06-22T05:17:36;18.70;99.90
60868;DHT22;46702;48.370;10.794;2023-06-22T05:20:02;18.70;99.90
60868;DHT22;46702;48.370;10.794;2023-06-22T05:22:31;18.80;99.90
60868;DHT22;46702;48.370;10.794;2023-06-22T05:24:57;19.00;99.90
60868;DHT22;46702;48.370;10.794;2023-06-22T05:27:22;19.10;99.90
60868;DHT22;46702;48.370;10.794;2023-06-22T05:29:48;19.20;99.90
60868;DHT22;46702;48.370;10.794;2023-06-22T05:32:14;19.20;99.90
60868;DHT22;46702;48.370;10.794;2023-06-22T05:34:39;19.20;99.90
60868;DHT22;46702;48.370;10.794;2023-06-22T05:37:05;19.30;99.90
60868;DHT22;46702;48.370;10.794;2023-06-22T05:39:31;19.40;99.90
60868;DHT22;46702;48.370;10.794;2023-06-22T05:41:57;19.50;99.90
60868;DHT22;46702;48.370;10.794;2023-06-22T05:44:22;19.60;99.90
60868;DHT22;46702;48.370;10.794;2023-06-22T05:46:48;19.60;99.90
60868;DHT22;46702;48.370;10.794;2023-06-22T05:49:14;19.80;99.90
60868;DHT22;46702;48.370;10.794;2023-06-22T05:51:40;19.90;99.90
60868;DHT22;46702;48.370;10.794;2023-06-22T05:54:06;20.00;99.90
60868;DHT22;46702;48.370;10.794;2023-06-22T05:56:33;20.10;99.90
60868;DHT22;46702;48.370;10.794;2023-06-22T05:58:59;20.30;99.90
60868;DHT22;46702;48.370;10.794;2023-06-22T06:01:24;20.30;99.90
60868;DHT22;46702;48.370;10.794;2023-06-22T06:03:51;20.40;99.90
60868;DHT22;46702;48.370;10.794;2023-06-22T06:06:18;20.60;99.90
60868;DHT22;46702;48.370;10.794;2023-06-22T06:08:46;20.70;99.90
60868;DHT22;46702;48.370;10.794;2023-06-22T06:11:12;20.70;99.90
60868;DHT22;46702;48.370;10.794;2023-06-22T06:13:37;20.70;99.90
60868;DHT22;46702;48.370;10.794;2023-06-22T06:16:03;20.80;99.90
60868;DHT22;46702;48.370;10.794;2023-06-22T06:18:29;20.90;99.90
60868;DHT22;46702;48.370;10.794;2023-06-22T06:20:54;20.90;99.90
60868;DHT22;46702;48.370;10.794;2023-06-22T06:23:20;21.00;99.90
60868;DHT22;46702;48.370;10.794;2023-06-22T06:25:45;21.10;99.90
60868;DHT22;46702;48.370;10.794;2023-06-22T06:28:11;21.20;99.90
60868;DHT22;46702;48.370;10.794;2023-06-22T06:30:37;21.40;99.90
60868;DHT22;46702;48.370;10.794;2023-06-22T06:33:02;21.60;99.90
60868;DHT22;46702;48.370;10.794;2023-06-22T06:35:30;21.70;99.90
60868;DHT22;46702;48.370;10.794;2023-06-22T06:37:55;21.80;99.90
60868;DHT22;46702;48.370;10.794;2023-06-22T06:40:22;21.70;99.90
60868;DHT22;46702;48.370;10.794;2023-06-22T06:42:48;21.80;99.90
60868;DHT22;46702;48.370;10.794;2023-06-22T06:45:19;21.80;99.90
60868;DHT22;46702;48.370;10.794;2023-06-22T06:47:45;21.90;99.90
60868;DHT22;46702;48.370;10.794;2023-06-22T06:50:11;22.00;99.90
60868;DHT22;46702;48.370;10.794;2023-06-22T06:52:37;22.20;99.90
60868;DHT22;46702;48.370;10.794;2023-06-22T06:55:03;22.20;99.90
60868;DHT22;46702;48.370;10.794;2023-06-22T06:57:34;22.20;99.90
60868;DHT22;46702;48.370;10.794;2023-06-22T06:59:59;22.30;99.90
60868;DHT22;46702;48.370;10.794;2023-06-22T07:02:25;22.40;99.90
60868;DHT22;46702;48.370;10.794;2023-06-22T07:04:53;22.50;99.90
60868;DHT22;46702;48.370;10.794;2023-06-22T07:07:21;22.60;99.90
60868;DHT22;46702;48.370;10.794;2023-06-22T07:09:46;22.70;99.90
60868;DHT22;46702;48.370;10.794;2023-06-22T07:12:12;22.70;99.90
60868;DHT22;46702;48.370;10.794;2023-06-22T07:14:37;22.90;99.90
60868;DHT22;46702;48.370;10.794;2023-06-22T07:17:03;23.00;99.90
60868;DHT22;46702;48.370;10.794;2023-06-22T07:19:29;23.10;99.90
60868;DHT22;46702;48.370;10.794;2023-06-22T07:21:55;23.20;99.90
60868;DHT22;46702;48.370;10.794;2023-06-22T07:24:22;23.40;99.90
60868;DHT22;46702;48.370;10.794;2023-06-22T07:26:48;23.40;99.90
60868;DHT22;46702;48.370;10.794;2023-06-22T07:29:16;23.50;99.90
60868;DHT22;46702;48.370;10.794;2023-06-22T07:31:42;23.60;99.90
60868;DHT22;46702;48.370;10.794;2023-06-22T07:34:07;23.80;99.90
60868;DHT22;46702;48.370;10.794;2023-06-22T07:36:34;23.90;99.90
60868;DHT22;46702;48.370;10.794;2023-06-22T07:39:01;23.90;99.90
60868;DHT22;46702;48.370;10.794;2023-06-22T07:41:28;24.10;99.90
60868;DHT22;46702;48.370;10.794;2023-06-22T07:43:54;24.30;99.90
60868;DHT22;46702;48.370;10.794;2023-06-22T07:46:19;24.40;99.90
60868;DHT22;46702;48.370;10.794;2023-06-22T07:48:45;24.40;99.90
60868;DHT22;46702;48.370;10.794;2023-06-22T07:51:11;24.50;99.90
60868;DHT22;46702;48.370;10.794;2023-06-22T07:53:43;24.60;99.90
60868;DHT22;46702;48.370;10.794;2023-06-22T07:56:13;24.80;99.90
60868;DHT22;46702;48.370;10.794;2023-06-22T07:58:38;24.90;99.90
60868;DHT22;46702;48.370;10.794;2023-06-22T08:01:04;25.10;99.90
60868;DHT22;46702;48.370;10.794;2023-06-22T08:03:30;25.30;99.90
60868;DHT22;46702;48.370;10.794;2023-06-22T08:05:55;25.20;99.90
60868;DHT22;46702;48.370;10.794;2023-06-22T08:08:21;25.40;99.90
60868;DHT22;46702;48.370;10.794;2023-06-22T08:10:47;25.50;99.90
60868;DHT22;46702;48.370;10.794;2023-06-22T08:13:12;25.50;99.90
60868;DHT22;46702;48.370;10.794;2023-06-22T08:15:38;25.50;99.90
60868;DHT22;46702;48.370;10.794;2023-06-22T08:18:04;25.70;99.90
60868;DHT22;46702;48.370;10.794;2023-06-22T08:20:29;25.80;99.90
60868;DHT22;46702;48.370;10.794;2023-06-22T08:22:55;26.00;99.90
60868;DHT22;46702;48.370;10.794;2023-06-22T08:25:21;25.90;99.90
60868;DHT22;46702;48.370;10.794;2023-06-22T08:27:47;25.90;99.90
60868;DHT22;46702;48.370;10.794;2023-06-22T08:30:14;26.10;99.90
60868;DHT22;46702;48.370;10.794;2023-06-22T08:32:39;26.10;99.90
60868;DHT22;46702;48.370;10.794;2023-06-22T08:35:06;26.10;99.90
60868;DHT22;46702;48.370;10.794;2023-06-22T08:37:35;26.20;99.90
60868;DHT22;46702;48.370;10.794;2023-06-22T08:40:03;26.30;99.90
60868;DHT22;46702;48.370;10.794;2023-06-22T08:42:36;26.40;99.90
60868;DHT22;46702;48.370;10.794;2023-06-22T08:45:02;26.60;99.90
60868;DHT22;46702;48.370;10.794;2023-06-22T08:47:31;26.60;99.90
60868;DHT22;46702;48.370;10.794;2023-06-22T08:49:57;26.70;99.90
60868;DHT22;46702;48.370;10.794;2023-06-22T08:52:23;26.70;99.90
60868;DHT22;46702;48.370;10.794;2023-06-22T08:54:49;26.60;99.90
60868;DHT22;46702;48.370;10.794;2023-06-22T08:57:15;26.80;99.90
60868;DHT22;46702;48.370;10.794;2023-06-22T08:59:42;27.10;99.90
60868;DHT22;46702;48.370;10.794;2023-06-22T09:02:10;27.50;99.90
60868;DHT22;46702;48.370;10.794;2023-06-22T09:04:36;27.40;99.90
60868;DHT22;46702;48.370;10.794;2023-06-22T09:07:03;27.30;99.90
60868;DHT22;46702;48.370;10.794;2023-06-22T09:09:29;27.30;99.90
60868;DHT22;46702;48.370;10.794;2023-06-22T09:11:54;27.80;99.90
60868;DHT22;46702;48.370;10.794;2023-06-22T09:14:20;28.20;99.90
60868;DHT22;46702;48.370;10.794;2023-06-22T09:16:45;28.10;99.90
60868;DHT22;46702;48.370;10.794;2023-06-22T09:19:11;27.90;99.90
60868;DHT22;46702;48.370;10.794;2023-06-22T09:21:37;27.90;99.90
60868;DHT22;46702;48.370;10.794;2023-06-22T09:24:03;27.90;99.90
60868;DHT22;46702;48.370;10.794;2023-06-22T09:26:29;27.80;99.90
60868;DHT22;46702;48.370;10.794;2023-06-22T09:28:55;27.80;99.90
60868;DHT22;46702;48.370;10.794;2023-06-22T09:31:21;27.80;99.90
60868;DHT22;46702;48.370;10.794;2023-06-22T09:33:54;28.00;99.90
60868;DHT22;46702;48.370;10.794;2023-06-22T09:36:23;28.20;99.90
60868;DHT22;46702;48.370;10.794;2023-06-22T09:38:49;28.20;99.90
60868;DHT22;46702;48.370;10.794;2023-06-22T09:41:20;28.20;99.90
60868;DHT22;46702;48.370;10.794;2023-06-22T09:43:46;28.20;99.90
60868;DHT22;46702;48.370;10.794;2023-06-22T09:46:14;28.30;99.90
60868;DHT22;46702;48.370;10.794;2023-06-22T09:48:40;28.40;99.90
60868;DHT22;46702;48.370;10.794;2023-06-22T09:51:06;28.30;99.90
60868;DHT22;46702;48.370;10.794;2023-06-22T09:53:31;28.30;99.90
60868;DHT22;46702;48.370;10.794;2023-06-22T09:55:57;28.50;99.90
60868;DHT22;46702;48.370;10.794;2023-06-22T09:58:23;28.60;99.90
60868;DHT22;46702;48.370;10.794;2023-06-22T10:00:48;28.70;99.90
60868;DHT22;46702;48.370;10.794;2023-06-22T10:03:14;28.70;99.90
60868;DHT22;46702;48.370;10.794;2023-06-22T10:05:40;29.10;99.90
60868;DHT22;46702;48.370;10.794;2023-06-22T10:08:06;29.50;99.90
60868;DHT22;46702;48.370;10.794;2023-06-22T10:10:33;29.30;99.90
60868;DHT22;46702;48.370;10.794;2023-06-22T10:13:07;29.20;99.90
60868;DHT22;46702;48.370;10.794;2023-06-22T10:15:34;28.90;99.90
60868;DHT22;46702;48.370;10.794;2023-06-22T10:18:00;29.00;99.90
60868;DHT22;46702;48.370;10.794;2023-06-22T10:20:25;28.90;99.90
60868;DHT22;46702;48.370;10.794;2023-06-22T10:22:51;29.20;99.90
60868;DHT22;46702;48.370;10.794;2023-06-22T10:25:17;29.10;99.90
60868;DHT22;46702;48.370;10.794;2023-06-22T10:27:43;29.30;99.90
60868;DHT22;46702;48.370;10.794;2023-06-22T10:30:10;29.30;99.90
60868;DHT22;46702;48.370;10.794;2023-06-22T10:32:38;29.60;99.90
60868;DHT22;46702;48.370;10.794;2023-06-22T10:35:04;29.80;99.90
60868;DHT22;46702;48.370;10.794;2023-06-22T10:37:30;30.10;99.90
60868;DHT22;46702;48.370;10.794;2023-06-22T10:39:56;30.10;99.90
60868;DHT22;46702;48.370;10.794;2023-06-22T10:42:22;30.00;99.90
60868;DHT22;46702;48.370;10.794;2023-06-22T10:44:47;30.00;99.90
60868;DHT22;46702;48.370;10.794;2023-06-22T10:47:13;30.30;99.90
60868;DHT22;46702;48.370;10.794;2023-06-22T10:49:39;30.80;99.90
60868;DHT22;46702;48.370;10.794;2023-06-22T10:52:08;31.30;99.90
60868;DHT22;46702;48.370;10.794;2023-06-22T10:54:35;31.70;99.90
60868;DHT22;46702;48.370;10.794;2023-06-22T10:57:01;31.50;99.90
60868;DHT22;46702;48.370;10.794;2023-06-22T10:59:27;31.60;99.90
60868;DHT22;46702;48.370;10.794;2023-06-22T11:01:54;31.50;99.90
60868;DHT22;46702;48.370;10.794;2023-06-22T11:04:20;31.70;99.90
60868;DHT22;46702;48.370;10.794;2023-06-22T11:06:47;31.80;99.90
60868;DHT22;46702;48.370;10.794;2023-06-22T11:09:13;31.70;99.90
60868;DHT22;46702;48.370;10.794;2023-06-22T11:11:44;32.20;99.90
60868;DHT22;46702;48.370;10.794;2023-06-22T11:14:09;32.30;99.90
60868;DHT22;46702;48.370;10.794;2023-06-22T11:16:35;32.00;99.90
60868;DHT22;46702;48.370;10.794;2023-06-22T11:19:00;32.00;99.90
60868;DHT22;46702;48.370;10.794;2023-06-22T11:21:26;32.20;99.90
60868;DHT22;46702;48.370;10.794;2023-06-22T11:23:51;32.20;99.90
60868;DHT22;46702;48.370;10.794;2023-06-22T11:26:17;32.50;99.90
60868;DHT22;46702;48.370;10.794;2023-06-22T11:28:43;32.20;99.90
60868;DHT22;46702;48.370;10.794;2023-06-22T11:31:08;32.40;99.90
60868;DHT22;46702;48.370;10.794;2023-06-22T11:33:34;32.70;99.90
60868;DHT22;46702;48.370;10.794;2023-06-22T11:36:00;32.90;99.90
60868;DHT22;46702;48.370;10.794;2023-06-22T11:38:26;33.00;99.90
60868;DHT22;46702;48.370;10.794;2023-06-22T11:40:51;33.10;99.90
60868;DHT22;46702;48.370;10.794;2023-06-22T11:43:17;33.40;99.90
60868;DHT22;46702;48.370;10.794;2023-06-22T11:45:42;33.40;99.90
60868;DHT22;46702;48.370;10.794;2023-06-22T11:48:08;33.30;99.90
60868;DHT22;46702;48.370;10.794;2023-06-22T11:50:34;33.30;99.90
60868;DHT22;46702;48.370;10.794;2023-06-22T11:53:04;33.50;99.90
60868;DHT22;46702;48.370;10.794;2023-06-22T11:55:30;33.20;99.90
60868;DHT22;46702;48.370;10.794;2023-06-22T11:57:57;32.60;99.90
60868;DHT22;46702;48.370;10.794;2023-06-22T12:00:25;32.10;99.90
60868;DHT22;46702;48.370;10.794;2023-06-22T12:02:51;31.70;99.90
60868;DHT22;46702;48.370;10.794;2023-06-22T12:05:19;31.80;99.90
60868;DHT22;46702;48.370;10.794;2023-06-22T12:07:45;31.20;99.90
60868;DHT22;46702;48.370;10.794;2023-06-22T12:10:10;30.80;99.90
60868;DHT22;46702;48.370;10.794;2023-06-22T12:12:36;30.60;99.90
60868;DHT22;46702;48.370;10.794;2023-06-22T12:15:01;30.90;99.90
60868;DHT22;46702;48.370;10.794;2023-06-22T12:17:29;31.30;99.90
60868;DHT22;46702;48.370;10.794;2023-06-22T12:19:55;31.40;99.90
60868;DHT22;46702;48.370;10.794;2023-06-22T12:22:21;31.50;99.90
60868;DHT22;46702;48.370;10.794;2023-06-22T12:24:47;31.70;99.90
60868;DHT22;46702;48.370;10.794;2023-06-22T12:27:12;31.70;99.90
60868;DHT22;46702;48.370;10.794;2023-06-22T12:29:38;31.90;99.90
60868;DHT22;46702;48.370;10.794;2023-06-22T12:32:04;32.10;99.90
60868;DHT22;46702;48.370;10.794;2023-06-22T12:34:29;32.10;99.90
60868;DHT22;46702;48.370;10.794;2023-06-22T12:36:55;32.20;99.90
60868;DHT22;46702;48.370;10.794;2023-06-22T12:39:21;32.70;99.90
60868;DHT22;46702;48.370;10.794;2023-06-22T12:41:46;33.20;99.90
60868;DHT22;46702;48.370;10.794;2023-06-22T12:44:12;33.30;99.90
60868;DHT22;46702;48.370;10.794;2023-06-22T12:46:37;33.00;99.90
60868;DHT22;46702;48.370;10.794;2023-06-22T12:49:06;32.90;99.90
60868;DHT22;46702;48.370;10.794;2023-06-22T12:51:32;33.10;99.90
60868;DHT22;46702;48.370;10.794;2023-06-22T12:53:57;33.40;99.90
60868;DHT22;46702;48.370;10.794;2023-06-22T12:56:23;33.80;99.90
60868;DHT22;46702;48.370;10.794;2023-06-22T12:58:49;33.80;99.90
60868;DHT22;46702;48.370;10.794;2023-06-22T13:01:14;34.00;99.90
60868;DHT22;46702;48.370;10.794;2023-06-22T13:03:41;34.00;99.90
60868;DHT22;46702;48.370;10.794;2023-06-22T13:06:07;34.00;99.90
60868;DHT22;46702;48.370;10.794;2023-06-22T13:08:32;34.30;99.90
60868;DHT22;46702;48.370;10.794;2023-06-22T13:10:58;34.70;99.90
60868;DHT22;46702;48.370;10.794;2023-06-22T13:13:25;34.90;99.90
60868;DHT22;46702;48.370;10.794;2023-06-22T13:15:52;35.10;99.90
60868;DHT22;46702;48.370;10.794;2023-06-22T13:18:18;35.40;99.90
60868;DHT22;46702;48.370;10.794;2023-06-22T13:20:44;35.60;99.90
60868;DHT22;46702;48.370;10.794;2023-06-22T13:23:11;35.10;99.90
60868;DHT22;46702;48.370;10.794;2023-06-22T13:25:36;34.80;99.90
60868;DHT22;46702;48.370;10.794;2023-06-22T13:28:02;34.80;99.90
60868;DHT22;46702;48.370;10.794;2023-06-22T13:30:28;34.70;99.90
60868;DHT22;46702;48.370;10.794;2023-06-22T13:32:54;34.80;99.90
60868;DHT22;46702;48.370;10.794;2023-06-22T13:35:19;34.90;99.90
60868;DHT22;46702;48.370;10.794;2023-06-22T13:37:45;35.20;99.90
60868;DHT22;46702;48.370;10.794;2023-06-22T13:40:10;35.40;99.90
60868;DHT22;46702;48.370;10.794;2023-06-22T13:42:36;35.10;99.90
60868;DHT22;46702;48.370;10.794;2023-06-22T13:45:02;35.30;99.90
60868;DHT22;46702;48.370;10.794;2023-06-22T13:47:29;35.10;99.90
60868;DHT22;46702;48.370;10.794;2023-06-22T13:49:55;34.80;99.90
60868;DHT22;46702;48.370;10.794;2023-06-22T13:52:21;34.70;99.90
60868;DHT22;46702;48.370;10.794;2023-06-22T13:54:46;34.30;99.90
60868;DHT22;46702;48.370;10.794;2023-06-22T13:57:12;34.00;99.90
60868;DHT22;46702;48.370;10.794;2023-06-22T13:59:37;33.80;99.90
60868;DHT22;46702;48.370;10.794;2023-06-22T14:02:03;33.80;99.90
60868;DHT22;46702;48.370;10.794;2023-06-22T14:04:29;34.20;99.90
60868;DHT22;46702;48.370;10.794;2023-06-22T14:06:55;34.20;99.90
60868;DHT22;46702;48.370;10.794;2023-06-22T14:09:21;34.30;99.90
60868;DHT22;46702;48.370;10.794;2023-06-22T14:11:47;34.20;99.90
60868;DHT22;46702;48.370;10.794;2023-06-22T14:14:12;34.40;99.90
60868;DHT22;46702;48.370;10.794;2023-06-22T14:16:38;34.40;99.90
60868;DHT22;46702;48.370;10.794;2023-06-22T14:19:03;34.20;99.90
60868;DHT22;46702;48.370;10.794;2023-06-22T14:21:29;34.10;99.90
60868;DHT22;46702;48.370;10.794;2023-06-22T14:23:55;34.20;99.90
60868;DHT22;46702;48.370;10.794;2023-06-22T14:26:20;34.40;99.90
60868;DHT22;46702;48.370;10.794;2023-06-22T14:28:47;34.50;99.90
60868;DHT22;46702;48.370;10.794;2023-06-22T14:31:18;34.60;99.90
60868;DHT22;46702;48.370;10.794;2023-06-22T14:33:46;34.70;99.90
60868;DHT22;46702;48.370;10.794;2023-06-22T14:36:12;34.40;99.90
60868;DHT22;46702;48.370;10.794;2023-06-22T14:38:38;34.10;99.90
60868;DHT22;46702;48.370;10.794;2023-06-22T14:41:04;34.50;99.90
60868;DHT22;46702;48.370;10.794;2023-06-22T14:43:29;34.80;99.90
60868;DHT22;46702;48.370;10.794;2023-06-22T14:45:55;35.00;99.90
60868;DHT22;46702;48.370;10.794;2023-06-22T14:48:20;35.00;99.90
60868;DHT22;46702;48.370;10.794;2023-06-22T14:50:46;35.20;99.90
60868;DHT22;46702;48.370;10.794;2023-06-22T14:53:12;35.00;99.90
60868;DHT22;46702;48.370;10.794;2023-06-22T14:55:39;34.80;99.90
60868;DHT22;46702;48.370;10.794;2023-06-22T14:58:05;34.40;99.90
60868;DHT22;46702;48.370;10.794;2023-06-22T15:00:30;34.20;99.90
60868;DHT22;46702;48.370;10.794;2023-06-22T15:02:56;34.20;99.90
60868;DHT22;46702;48.370;10.794;2023-06-22T15:05:22;34.20;99.90
60868;DHT22;46702;48.370;10.794;2023-06-22T15:07:49;34.40;99.90
60868;DHT22;46702;48.370;10.794;2023-06-22T15:10:15;34.60;99.90
60868;DHT22;46702;48.370;10.794;2023-06-22T15:12:41;34.50;99.90